createdAt,value
2019-04-23T00:04:18.115Z,49.55
2019-04-23T00:06:59.414Z,49.85
2019-04-23T00:09:31.238Z,49.85
2019-04-23T00:11:59.950Z,49.52
2019-04-23T00:14:40.899Z,49.52
2019-04-23T00:17:17.806Z,50.11
2019-04-23T00:19:39.731Z,49.74
2019-04-23T00:22:37.020Z,49.74
2019-04-23T00:27:50.337Z,49.61
2019-04-23T00:30:20.289Z,49.22
2019-04-23T00:32:51.754Z,49.22
2019-04-23T00:35:25.757Z,49.23
2019-04-23T00:37:55.158Z,49.12
2019-04-23T00:40:35.719Z,49.05
2019-04-23T00:43:11.897Z,48.21
2019-04-23T00:48:22.280Z,47.76
2019-04-23T00:50:52.829Z,47.26
2019-04-23T00:56:03.149Z,47.26
2019-04-23T00:58:32.408Z,47.83
2019-04-23T01:01:04.127Z,48.02
2019-04-23T01:03:26.289Z,46.87
2019-04-23T01:06:07.805Z,46.87
2019-04-23T01:08:45.751Z,46.92
2019-04-23T01:11:16.616Z,48.30
2019-04-23T01:13:48.947Z,46.63
2019-04-23T01:16:21.287Z,46.83
2019-04-23T01:19:24.829Z,46.83
2019-04-23T01:21:45.228Z,46.07
2019-04-23T01:24:38.480Z,46.38
2019-04-23T01:27:55.846Z,46.38
2019-04-23T01:30:18.020Z,45.13
2019-04-23T01:32:48.482Z,45.13
2019-04-23T01:35:20.370Z,45.68
2019-04-23T01:37:56.166Z,45.03
2019-04-23T01:40:34.778Z,43.92
2019-04-23T01:43:05.557Z,43.45
2019-04-23T01:45:30.744Z,42.82
2019-04-23T01:48:05.027Z,41.79
2019-04-23T01:50:52.109Z,41.79
2019-04-23T01:53:22.625Z,40.84
2019-04-23T01:55:54.440Z,38.05
2019-04-23T02:01:00.744Z,36.83
2019-04-23T02:03:38.488Z,35.23
2019-04-23T02:06:08.695Z,35.79
2019-04-23T02:08:43.497Z,35.79
2019-04-23T02:14:05.439Z,33.80
2019-04-23T02:16:24.634Z,32.93
2019-04-23T02:18:56.779Z,32.93
2019-04-23T02:21:33.417Z,32.82
2019-04-23T02:24:09.157Z,38.24
2019-04-23T02:26:36.807Z,38.24
2019-04-23T02:29:28.600Z,33.86
2019-04-23T02:34:51.920Z,31.64
2019-04-23T02:37:22.749Z,31.64
2019-04-23T02:39:40.167Z,31.62
2019-04-23T02:44:38.833Z,32.07
2019-04-23T02:47:21.848Z,30.74
2019-04-23T02:49:55.329Z,30.74
2019-04-23T02:52:21.695Z,30.25
2019-04-23T02:54:58.644Z,30.42
2019-04-23T02:57:35.590Z,29.90
2019-04-23T03:02:43.600Z,30.16
2019-04-23T03:05:11.684Z,29.34
2019-04-23T03:21:25.441Z,28.94
2019-04-23T03:24:21.128Z,28.34
2019-04-23T03:29:31.416Z,28.44
2019-04-23T03:32:45.922Z,28.68
2019-04-23T03:42:17.136Z,30.32
2019-04-23T03:47:24.788Z,30.92
2019-04-23T03:55:23.169Z,29.82
2019-04-23T03:57:30.982Z,28.84
2019-04-23T04:00:15.663Z,28.98
2019-04-23T04:05:22.677Z,29.03
2019-04-23T04:10:26.613Z,28.68
2019-04-23T04:12:57.638Z,28.68
2019-04-23T04:18:28.491Z,29.12
2019-04-23T04:21:01.171Z,29.04
2019-04-23T04:33:41.383Z,28.53
2019-04-23T04:36:18.097Z,28.16
2019-04-23T04:38:40.195Z,28.16
2019-04-23T04:57:00.654Z,27.20
2019-04-23T04:59:08.755Z,27.34
2019-04-23T05:01:37.760Z,27.34
2019-04-23T05:04:20.200Z,28.60
2019-04-23T05:06:56.662Z,27.50
2019-04-23T05:09:21.316Z,27.54
2019-04-23T05:17:13.375Z,28.16
2019-04-23T05:22:12.196Z,27.50
2019-04-23T05:24:43.249Z,27.40
2019-04-23T05:27:15.530Z,27.40
2019-04-23T05:29:54.296Z,27.23
2019-04-23T05:32:19.452Z,27.32
2019-04-23T05:35:00.597Z,27.32
2019-04-23T05:37:37.133Z,28.03
2019-04-23T05:40:12.661Z,28.03
2019-04-23T05:42:33.143Z,27.40
2019-04-23T05:45:14.395Z,27.29
2019-04-23T05:47:48.192Z,26.59
2019-04-23T05:50:18.863Z,26.44
2019-04-23T05:53:10.172Z,26.44
2019-04-23T05:55:20.351Z,26.04
2019-04-23T05:57:53.635Z,26.04
2019-04-23T06:00:34.786Z,26.17
2019-04-23T06:03:04.761Z,23.89
2019-04-23T06:05:38.761Z,23.89
2019-04-23T06:08:12.086Z,24.96
2019-04-23T06:10:55.840Z,24.87
2019-04-23T06:13:41.049Z,24.87
2019-04-23T06:16:08.416Z,24.30
2019-04-23T06:18:38.093Z,24.35
2019-04-23T06:21:12.916Z,24.52
2019-04-23T06:23:50.214Z,24.32
2019-04-23T06:29:08.899Z,24.12
2019-04-23T06:31:41.527Z,24.94
2019-04-23T06:34:17.151Z,25.08
2019-04-23T06:36:46.303Z,24.29
2019-04-23T06:39:15.887Z,24.29
2019-04-23T06:41:50.125Z,25.16
2019-04-23T06:47:16.735Z,41.63
2019-04-23T06:55:01.191Z,26.26
2019-04-23T06:57:41.122Z,24.93
2019-04-23T07:00:08.015Z,24.93
2019-04-23T07:02:59.769Z,24.55
2019-04-23T07:05:55.139Z,24.93
2019-04-23T07:08:32.488Z,24.93
2019-04-23T07:11:11.499Z,23.76
2019-04-23T07:13:54.725Z,23.76
2019-04-23T07:16:14.635Z,24.70
2019-04-23T07:21:25.137Z,23.94
2019-04-23T07:29:09.040Z,22.01
2019-04-23T07:31:40.963Z,21.77
2019-04-23T07:34:15.776Z,21.77
2019-04-23T07:36:48.376Z,21.70
2019-04-23T07:39:58.885Z,22.72
2019-04-23T07:42:44.610Z,23.02
2019-04-23T07:45:29.630Z,22.65
2019-04-23T07:48:24.229Z,22.22
2019-04-23T07:51:03.335Z,22.45
2019-04-23T07:53:41.241Z,22.45
2019-04-23T07:56:13.126Z,22.21
2019-04-23T07:58:54.374Z,21.94
2019-04-23T08:01:27.071Z,21.92
2019-04-23T08:04:18.245Z,21.92
2019-04-23T08:06:52.407Z,21.69
2019-04-23T08:09:24.629Z,22.29
2019-04-23T08:11:56.796Z,21.93
2019-04-23T08:14:34.355Z,22.38
2019-04-23T08:17:09.061Z,22.25
2019-04-23T08:19:49.383Z,22.25
2019-04-23T08:22:22.214Z,21.86
2019-04-23T08:25:12.853Z,21.48
2019-04-23T08:27:34.482Z,22.69
2019-04-23T08:30:06.219Z,21.73
2019-04-23T08:32:47.600Z,21.73
2019-04-23T08:35:15.998Z,21.84
2019-04-23T08:38:04.602Z,22.58
2019-04-23T08:40:52.769Z,22.35
2019-04-23T08:43:05.595Z,22.93
2019-04-23T08:45:52.978Z,22.74
2019-04-23T08:48:27.809Z,22.39
2019-04-23T08:51:19.411Z,21.94
2019-04-23T08:53:40.667Z,21.94
2019-04-23T08:56:08.722Z,22.37
2019-04-23T08:58:46.331Z,22.40
2019-04-23T09:01:16.938Z,22.37
2019-04-23T09:03:55.986Z,22.38
2019-04-23T09:06:27.634Z,21.86
2019-04-23T09:09:09.011Z,21.86
2019-04-23T09:11:45.990Z,22.24
2019-04-23T09:14:04.588Z,22.24
2019-04-23T09:19:23.225Z,21.84
2019-04-23T09:22:02.003Z,22.49
2019-04-23T09:24:32.683Z,22.49
2019-04-23T09:27:23.432Z,22.18
2019-04-23T09:38:08.297Z,22.65
2019-04-23T09:41:13.064Z,23.14
2019-04-23T09:44:07.868Z,23.14
2019-04-23T09:47:00.692Z,22.85
2019-04-23T09:52:09.539Z,24.21
2019-04-23T09:54:47.715Z,24.17
2019-04-23T09:57:15.955Z,24.17
2019-04-23T09:59:48.864Z,24.56
2019-04-23T10:02:19.514Z,24.56
2019-04-23T10:04:48.610Z,23.49
2019-04-23T10:07:23.859Z,23.35
2019-04-23T10:09:42.506Z,23.35
2019-04-23T10:12:17.756Z,23.02
2019-04-23T10:14:59.220Z,23.47
2019-04-23T10:17:29.987Z,23.79
2019-04-23T10:20:04.694Z,24.68
2019-04-23T10:22:39.571Z,23.71
2019-04-23T10:25:13.221Z,23.71
2019-04-23T10:27:45.369Z,23.79
2019-04-23T10:30:19.671Z,23.92
2019-04-23T10:32:51.671Z,23.67
2019-04-23T10:35:35.036Z,23.68
2019-04-23T10:38:03.869Z,23.91
2019-04-23T10:40:38.182Z,23.63
2019-04-23T10:43:09.256Z,23.50
2019-04-23T10:46:31.133Z,23.50
2019-04-23T10:49:52.192Z,23.68
2019-04-23T10:57:06.158Z,22.35
2019-04-23T11:10:15.879Z,21.60
2019-04-23T11:17:58.300Z,22.22
2019-04-23T11:20:41.576Z,22.88
2019-04-23T11:23:04.849Z,22.84
2019-04-23T11:25:44.048Z,22.95
2019-04-23T11:36:57.992Z,23.22
2019-04-23T11:39:21.708Z,23.05
2019-04-23T11:42:12.279Z,23.79
2019-04-23T11:44:36.710Z,23.09
2019-04-23T11:47:29.024Z,24.62
2019-04-23T11:54:45.308Z,23.21
2019-04-23T11:59:55.636Z,23.14
2019-04-23T12:02:56.200Z,23.34
2019-04-23T12:06:17.294Z,23.34
2019-04-23T12:09:09.838Z,23.60
2019-04-23T12:14:40.536Z,23.74
2019-04-23T12:20:13.525Z,24.15
2019-04-23T12:22:43.526Z,23.79
2019-04-23T12:25:29.743Z,23.44
2019-04-23T12:27:51.714Z,24.28
2019-04-23T12:30:42.009Z,24.28
2019-04-23T12:33:10.691Z,23.19
2019-04-23T12:35:39.008Z,23.08
2019-04-23T12:38:26.981Z,23.08
2019-04-23T12:41:14.006Z,23.27
2019-04-23T12:43:40.607Z,23.20
2019-04-23T12:46:16.233Z,23.20
2019-04-23T12:49:28.348Z,23.06
2019-04-23T12:51:45.209Z,23.56
2019-04-23T12:54:37.998Z,23.82
2019-04-23T12:57:05.162Z,25.56
2019-04-23T13:02:32.800Z,26.34
2019-04-23T13:07:38.085Z,26.68
2019-04-23T13:12:52.894Z,27.38
2019-04-23T13:18:03.117Z,28.14
2019-04-23T13:20:33.629Z,29.10
2019-04-23T13:28:21.706Z,29.92
2019-04-23T13:31:00.739Z,29.50
2019-04-23T13:41:23.126Z,30.48
2019-04-23T13:43:42.577Z,30.45
2019-04-23T13:46:17.263Z,30.45
2019-04-23T13:48:47.039Z,30.77
2019-04-23T13:51:25.753Z,30.09
2019-04-23T13:54:08.190Z,30.45
2019-04-23T13:57:05.860Z,30.45
2019-04-23T13:59:26.349Z,31.18
2019-04-23T14:01:42.939Z,31.72
2019-04-23T14:04:38.666Z,31.72
2019-04-23T14:09:45.997Z,29.62
2019-04-23T14:12:18.211Z,29.62
2019-04-23T14:14:56.309Z,27.66
2019-04-23T14:20:07.147Z,27.15
2019-04-23T14:25:11.415Z,26.73
2019-04-23T14:28:00.176Z,27.16
2019-04-23T14:32:54.122Z,27.42
2019-04-23T14:38:19.953Z,27.36
2019-04-23T14:40:42.974Z,28.11
2019-04-23T14:46:14.623Z,29.17
2019-04-23T14:48:20.617Z,28.62
2019-04-23T14:50:48.803Z,28.85
2019-04-23T14:53:40.630Z,28.85
2019-04-23T15:06:35.811Z,28.08
2019-04-23T15:11:45.148Z,29.06
2019-04-23T15:14:11.871Z,28.88
2019-04-23T15:16:49.791Z,28.55
2019-04-23T15:19:40.154Z,28.67
2019-04-23T15:22:12.071Z,29.58
2019-04-23T15:24:30.614Z,29.95
2019-04-23T15:29:27.566Z,29.62
2019-04-23T15:34:52.098Z,28.82
2019-04-23T15:37:33.245Z,28.82
2019-04-23T15:39:55.092Z,30.36
2019-04-23T15:42:25.403Z,29.54
2019-04-23T15:45:00.954Z,29.07
2019-04-23T15:47:31.861Z,29.07
2019-04-23T15:50:10.050Z,29.56
2019-04-23T15:52:47.267Z,30.47
2019-04-23T15:55:12.252Z,29.15
2019-04-23T16:00:17.854Z,29.08
2019-04-23T16:02:27.073Z,29.46
2019-04-23T16:05:00.038Z,29.46
2019-04-23T16:07:51.907Z,29.17
2019-04-23T16:10:28.784Z,29.17
2019-04-23T16:13:32.427Z,29.13
2019-04-23T16:15:46.690Z,29.23
2019-04-23T16:18:45.388Z,29.20
2019-04-23T16:21:10.523Z,29.51
2019-04-23T16:23:37.510Z,29.51
2019-04-23T16:26:14.715Z,29.68
2019-04-23T16:31:34.775Z,29.56
2019-04-23T16:34:27.327Z,29.76
2019-04-23T16:37:06.118Z,29.61
2019-04-23T16:39:49.330Z,29.63
2019-04-23T16:42:08.800Z,29.63
2019-04-23T16:44:59.696Z,29.64
2019-04-23T16:47:21.883Z,29.93
2019-04-23T16:50:04.740Z,30.09
2019-04-23T16:52:26.406Z,30.12
2019-04-23T16:55:13.788Z,30.22
2019-04-23T17:02:48.024Z,30.22
2019-04-23T17:05:19.701Z,30.22
2019-04-23T17:08:08.387Z,30.28
2019-04-23T17:15:40.438Z,30.38
2019-04-23T17:18:18.369Z,30.52
2019-04-23T17:20:52.982Z,30.57
2019-04-23T17:28:29.093Z,30.42
2019-04-23T17:31:26.302Z,30.42
2019-04-23T17:36:38.520Z,30.77
2019-04-23T17:39:18.185Z,30.77
2019-04-23T17:42:12.783Z,30.78
2019-04-23T17:47:35.564Z,30.92
2019-04-23T17:50:20.211Z,30.92
2019-04-23T17:52:42.051Z,30.77
2019-04-23T17:57:55.924Z,31.07
2019-04-23T18:00:33.570Z,30.70
2019-04-23T18:02:59.695Z,30.41
2019-04-23T18:05:40.316Z,30.41
2019-04-23T18:10:37.054Z,30.71
2019-04-23T18:13:13.326Z,31.11
2019-04-23T18:15:46.137Z,30.80
2019-04-23T18:18:23.574Z,30.72
2019-04-23T18:23:41.289Z,31.29
2019-04-23T18:26:14.195Z,31.42
2019-04-23T18:28:58.288Z,31.42
2019-04-23T18:31:44.606Z,31.63
2019-04-23T18:34:26.528Z,31.96
2019-04-23T18:36:38.783Z,32.07
2019-04-23T18:39:26.243Z,32.28
2019-04-23T18:42:04.004Z,32.30
2019-04-23T18:44:35.020Z,32.72
2019-04-23T18:47:00.486Z,32.72
2019-04-23T18:52:14.604Z,32.97
2019-04-23T18:54:40.497Z,33.34
2019-04-23T18:57:13.037Z,33.34
2019-04-23T19:00:03.337Z,33.54
2019-04-23T19:03:11.544Z,33.54
2019-04-23T19:06:10.533Z,34.05
2019-04-23T19:09:00.595Z,34.48
2019-04-23T19:11:35.658Z,34.90
2019-04-23T19:14:03.184Z,34.70
2019-04-23T19:16:53.447Z,34.70
2019-04-23T19:19:20.404Z,35.43
2019-04-23T19:24:28.389Z,36.29
2019-04-23T19:28:09.204Z,36.29
2019-04-23T19:33:41.913Z,37.13
2019-04-23T19:36:13.807Z,37.13
2019-04-23T19:41:47.555Z,37.37
2019-04-23T19:43:56.236Z,37.57
2019-04-23T19:46:36.936Z,37.19
2019-04-23T19:49:07.211Z,37.85
2019-04-23T19:51:39.770Z,37.85
2019-04-23T19:56:47.256Z,37.99
2019-04-23T19:59:15.427Z,38.31
2019-04-23T20:01:49.744Z,38.58
2019-04-23T20:04:23.446Z,38.20
2019-04-23T20:09:47.884Z,38.28
2019-04-23T20:14:42.158Z,39.07
2019-04-23T20:17:34.097Z,38.54
2019-04-23T20:19:48.564Z,39.07
2019-04-23T20:22:33.961Z,39.30
2019-04-23T20:25:20.926Z,39.05
2019-04-23T20:27:39.237Z,39.03
2019-04-23T20:36:10.589Z,39.80
2019-04-23T20:41:21.421Z,40.18
2019-04-23T20:43:57.640Z,40.05
2019-04-23T20:46:24.876Z,40.51
2019-04-23T20:51:36.351Z,40.61
2019-04-23T20:56:42.482Z,41.04
2019-04-23T20:59:12.300Z,40.91
2019-04-23T21:02:15.279Z,40.91
2019-04-23T21:04:47.479Z,40.95
2019-04-23T21:07:17.602Z,40.97
2019-04-23T21:10:01.048Z,41.34
2019-04-23T21:12:42.485Z,41.34
2019-04-23T21:15:05.329Z,41.91
2019-04-23T21:17:35.665Z,41.91
2019-04-23T21:22:39.559Z,41.44
2019-04-23T21:25:09.448Z,41.96
2019-04-23T21:27:55.348Z,42.39
2019-04-23T21:31:02.194Z,42.39
2019-04-23T21:33:24.561Z,42.59
2019-04-23T21:36:22.366Z,41.93
2019-04-23T21:39:23.080Z,41.73
2019-04-23T21:41:58.032Z,41.90
2019-04-23T21:47:07.750Z,42.73
2019-04-23T21:49:47.711Z,42.31
2019-04-23T21:54:47.154Z,42.50
2019-04-23T21:57:16.897Z,42.78
2019-04-23T21:59:55.664Z,43.10
2019-04-23T22:02:27.709Z,43.32
2019-04-23T22:05:19.442Z,43.20
2019-04-23T22:07:41.998Z,43.46
2019-04-23T22:10:02.712Z,43.94
2019-04-23T22:12:46.944Z,43.94
2019-04-23T22:15:13.303Z,43.99
2019-04-23T22:17:46.283Z,44.00
2019-04-23T22:25:39.250Z,43.98
2019-04-23T22:28:00.745Z,43.63
2019-04-23T22:30:38.612Z,44.31
2019-04-23T22:33:09.856Z,44.27
2019-04-23T22:35:48.314Z,44.27
2019-04-23T22:38:20.759Z,43.99
2019-04-23T22:40:58.170Z,45.21
2019-04-23T22:43:38.165Z,45.21
2019-04-23T22:48:46.154Z,45.31
2019-04-23T22:51:21.076Z,45.31
2019-04-23T22:53:53.211Z,45.62
2019-04-23T22:56:44.269Z,45.62
2019-04-23T22:59:18.606Z,45.18
2019-04-23T23:01:43.138Z,45.63
2019-04-23T23:09:34.257Z,46.25
2019-04-23T23:14:27.937Z,46.13
2019-04-23T23:17:02.249Z,46.78
2019-04-23T23:22:44.605Z,46.40
2019-04-23T23:24:56.446Z,46.43
2019-04-23T23:27:54.322Z,46.64
2019-04-23T23:30:26.697Z,46.51
2019-04-23T23:35:28.416Z,46.14
2019-04-23T23:38:08.305Z,46.09
2019-04-23T23:40:47.591Z,46.19
2019-04-23T23:43:23.386Z,46.47
2019-04-23T23:51:01.544Z,47.11
2019-04-23T23:53:34.548Z,46.93
2019-04-23T23:58:40.750Z,47.13
